createdAt,value
2018-05-26T00:00:20.647Z,21.64
2018-05-26T00:00:56.745Z,21.61
2018-05-26T00:01:32.380Z,21.59
2018-05-26T00:02:08.368Z,21.66
2018-05-26T00:02:44.892Z,21.67
2018-05-26T00:03:20.406Z,21.53
2018-05-26T00:03:55.736Z,21.56
2018-05-26T00:04:31.065Z,21.60
2018-05-26T00:05:06.257Z,21.48
2018-05-26T00:05:42.469Z,21.56
2018-05-26T00:06:18.065Z,21.50
2018-05-26T00:06:53.387Z,21.59
2018-05-26T00:07:29.083Z,21.48
2018-05-26T00:08:04.533Z,21.59
2018-05-26T00:08:39.878Z,21.54
2018-05-26T00:09:15.317Z,21.56
2018-05-26T00:09:50.499Z,21.51
2018-05-26T00:10:26.007Z,21.46
2018-05-26T00:11:01.227Z,21.48
2018-05-26T00:11:36.744Z,21.50
2018-05-26T00:12:12.183Z,21.45
2018-05-26T00:12:48.253Z,21.51
2018-05-26T00:13:23.590Z,21.45
2018-05-26T00:13:58.999Z,21.48
2018-05-26T00:14:34.214Z,21.46
2018-05-26T00:15:09.644Z,21.50
2018-05-26T00:15:46.567Z,21.48
2018-05-26T00:16:21.707Z,21.44
2018-05-26T00:16:57.024Z,21.39
2018-05-26T00:17:32.841Z,21.50
2018-05-26T00:18:08.365Z,21.41
2018-05-26T00:18:43.800Z,21.44
2018-05-26T00:19:19.410Z,21.42
2018-05-26T00:19:54.827Z,21.44
2018-05-26T00:20:30.285Z,21.50
2018-05-26T00:21:05.741Z,21.46
2018-05-26T00:21:40.964Z,21.45
2018-05-26T00:22:16.508Z,21.53
2018-05-26T00:22:51.753Z,21.46
2018-05-26T00:23:26.990Z,21.42
2018-05-26T00:24:02.315Z,21.36
2018-05-26T00:24:37.902Z,21.35
2018-05-26T00:25:13.011Z,21.38
2018-05-26T00:25:48.451Z,21.50
2018-05-26T00:26:24.189Z,21.42
2018-05-26T00:26:59.629Z,21.42
2018-05-26T00:27:37.663Z,21.42
2018-05-26T00:28:13.226Z,21.39
2018-05-26T00:28:49.666Z,21.38
2018-05-26T00:29:25.109Z,21.44
2018-05-26T00:30:00.762Z,21.35
2018-05-26T00:30:36.908Z,21.39
2018-05-26T00:31:12.490Z,21.32
2018-05-26T00:31:47.535Z,21.32
2018-05-26T00:32:23.249Z,21.32
2018-05-26T00:32:58.719Z,21.26
2018-05-26T00:33:33.975Z,21.30
2018-05-26T00:34:09.373Z,21.26
2018-05-26T00:34:45.829Z,21.23
2018-05-26T00:35:20.933Z,21.34
2018-05-26T00:35:56.145Z,21.27
2018-05-26T00:36:31.619Z,21.35
2018-05-26T00:37:07.059Z,21.23
2018-05-26T00:37:42.166Z,21.24
2018-05-26T00:38:18.044Z,21.35
2018-05-26T00:38:53.382Z,21.26
2018-05-26T00:39:28.597Z,21.20
2018-05-26T00:40:03.842Z,21.30
2018-05-26T00:40:39.242Z,21.09
2018-05-26T00:41:14.572Z,21.16
2018-05-26T00:41:50.086Z,21.16
2018-05-26T00:42:25.784Z,21.16
2018-05-26T00:43:04.386Z,21.20
2018-05-26T00:43:39.757Z,21.20
2018-05-26T00:44:15.263Z,21.26
2018-05-26T00:44:50.801Z,21.24
2018-05-26T00:45:26.429Z,21.26
2018-05-26T00:46:02.122Z,21.27
2018-05-26T00:46:37.621Z,21.29
2018-05-26T00:47:12.928Z,21.27
2018-05-26T00:48:05.037Z,21.20
2018-05-26T00:48:40.612Z,21.29
2018-05-26T00:49:16.206Z,21.30
2018-05-26T00:49:51.761Z,21.13
2018-05-26T00:50:26.987Z,21.19
2018-05-26T00:51:02.508Z,21.21
2018-05-26T00:51:37.907Z,21.17
2018-05-26T00:52:13.720Z,21.19
2018-05-26T00:52:49.911Z,21.13
2018-05-26T00:53:27.380Z,21.08
2018-05-26T00:54:02.985Z,21.09
2018-05-26T00:54:39.348Z,21.26
2018-05-26T00:55:14.827Z,21.08
2018-05-26T00:55:50.220Z,21.16
2018-05-26T00:56:25.747Z,21.14
2018-05-26T00:57:01.486Z,21.06
2018-05-26T00:57:36.711Z,21.08
2018-05-26T00:58:12.022Z,20.96
2018-05-26T00:58:47.579Z,21.08
2018-05-26T00:59:23.086Z,21.05
2018-05-26T00:59:58.401Z,21.19
2018-05-26T01:00:34.093Z,21.14
2018-05-26T01:01:09.730Z,21.21
2018-05-26T01:01:45.366Z,21.20
2018-05-26T01:02:20.695Z,21.19
2018-05-26T01:02:56.671Z,21.14
2018-05-26T01:03:32.193Z,21.11
2018-05-26T01:04:07.975Z,21.11
2018-05-26T01:04:43.485Z,21.09
2018-05-26T01:05:19.028Z,21.09
2018-05-26T01:05:54.282Z,21.16
2018-05-26T01:06:29.830Z,21.08
2018-05-26T01:07:05.447Z,21.06
2018-05-26T01:07:41.316Z,21.02
2018-05-26T01:08:17.248Z,21.08
2018-05-26T01:08:52.513Z,20.99
2018-05-26T01:09:27.740Z,21.01
2018-05-26T01:10:03.833Z,20.96
2018-05-26T01:10:39.446Z,21.05
2018-05-26T01:11:15.391Z,21.01
2018-05-26T01:11:50.760Z,21.09
2018-05-26T01:12:26.256Z,21.05
2018-05-26T01:13:02.067Z,21.06
2018-05-26T01:13:37.690Z,20.99
2018-05-26T01:14:14.157Z,21.09
2018-05-26T01:14:49.732Z,21.05
2018-05-26T01:15:25.180Z,21.06
2018-05-26T01:16:00.622Z,20.95
2018-05-26T01:16:36.753Z,21.01
2018-05-26T01:17:12.081Z,20.98
2018-05-26T01:17:47.146Z,21.01
2018-05-26T01:18:22.376Z,20.99
2018-05-26T01:19:00.898Z,20.96
2018-05-26T01:19:36.361Z,20.99
2018-05-26T01:20:11.796Z,21.02
2018-05-26T01:20:48.093Z,21.01
2018-05-26T01:21:24.598Z,20.98
2018-05-26T01:22:00.235Z,21.01
2018-05-26T01:22:35.545Z,21.01
2018-05-26T01:23:11.481Z,21.04
2018-05-26T01:23:47.122Z,21.01
2018-05-26T01:24:22.735Z,21.01
2018-05-26T01:24:59.435Z,21.05
2018-05-26T01:25:34.675Z,20.93
2018-05-26T01:26:10.130Z,20.98
2018-05-26T01:26:45.849Z,20.96
2018-05-26T01:27:21.040Z,20.87
2018-05-26T01:27:56.351Z,20.95
2018-05-26T01:28:31.686Z,20.87
2018-05-26T01:29:07.652Z,20.86
2018-05-26T01:29:49.169Z,20.90
2018-05-26T01:30:24.487Z,20.83
2018-05-26T01:31:00.520Z,20.79
2018-05-26T01:31:35.918Z,20.76
2018-05-26T01:32:11.201Z,20.79
2018-05-26T01:32:46.646Z,20.80
2018-05-26T01:33:22.064Z,20.79
2018-05-26T01:33:57.625Z,20.76
2018-05-26T01:34:32.875Z,20.76
2018-05-26T01:35:10.168Z,20.71
2018-05-26T01:35:45.693Z,20.69
2018-05-26T01:36:21.305Z,20.71
2018-05-26T01:36:57.774Z,20.69
2018-05-26T01:37:32.941Z,20.74
2018-05-26T01:38:08.554Z,20.66
2018-05-26T01:38:43.929Z,20.59
2018-05-26T01:39:19.300Z,20.68
2018-05-26T01:39:57.080Z,20.66
2018-05-26T01:40:32.380Z,20.68
2018-05-26T01:41:08.273Z,20.62
2018-05-26T01:41:44.226Z,20.62
2018-05-26T01:42:19.649Z,20.62
2018-05-26T01:42:55.197Z,20.69
2018-05-26T01:43:30.774Z,20.62
2018-05-26T01:44:06.349Z,20.64
2018-05-26T01:44:52.037Z,20.58
2018-05-26T01:45:27.465Z,20.59
2018-05-26T01:46:02.774Z,20.62
2018-05-26T01:46:38.549Z,20.64
2018-05-26T01:47:14.178Z,20.59
2018-05-26T01:47:49.966Z,20.64
2018-05-26T01:48:25.540Z,20.64
2018-05-26T01:49:01.161Z,20.50
2018-05-26T01:49:47.802Z,20.56
2018-05-26T01:50:23.056Z,20.51
2018-05-26T01:50:59.381Z,20.51
2018-05-26T01:51:35.259Z,20.54
2018-05-26T01:52:10.967Z,20.54
2018-05-26T01:52:47.125Z,20.53
2018-05-26T01:53:22.355Z,20.53
2018-05-26T01:53:58.018Z,20.46
2018-05-26T01:54:38.708Z,20.54
2018-05-26T01:55:13.985Z,20.59
2018-05-26T01:55:49.411Z,20.61
2018-05-26T01:56:25.733Z,20.46
2018-05-26T01:57:01.328Z,20.43
2018-05-26T01:57:37.046Z,20.46
2018-05-26T01:58:12.377Z,20.46
2018-05-26T01:58:47.886Z,20.39
2018-05-26T01:59:26.331Z,20.47
2018-05-26T02:00:01.614Z,20.47
2018-05-26T02:00:37.949Z,20.49
2018-05-26T02:01:13.605Z,20.49
2018-05-26T02:01:49.041Z,20.51
2018-05-26T02:02:24.261Z,20.47
2018-05-26T02:02:59.491Z,20.47
2018-05-26T02:03:34.815Z,20.39
2018-05-26T02:04:10.984Z,20.42
2018-05-26T02:04:46.444Z,20.46
2018-05-26T02:05:21.880Z,20.46
2018-05-26T02:05:57.125Z,20.43
2018-05-26T02:06:32.441Z,20.46
2018-05-26T02:07:07.760Z,20.47
2018-05-26T02:07:43.076Z,20.42
2018-05-26T02:08:18.397Z,20.34
2018-05-26T02:08:53.925Z,20.31
2018-05-26T02:09:29.248Z,20.35
2018-05-26T02:10:04.537Z,20.33
2018-05-26T02:10:41.357Z,20.31
2018-05-26T02:11:17.130Z,20.30
2018-05-26T02:11:52.582Z,20.28
2018-05-26T02:12:27.900Z,20.41
2018-05-26T02:13:03.240Z,20.41
2018-05-26T02:13:39.072Z,20.35
2018-05-26T02:14:14.268Z,20.33
2018-05-26T02:14:49.524Z,20.38
2018-05-26T02:15:24.963Z,20.39
2018-05-26T02:16:00.607Z,20.34
2018-05-26T02:16:36.036Z,20.41
2018-05-26T02:17:11.530Z,20.41
2018-05-26T02:17:46.752Z,20.39
2018-05-26T02:18:22.263Z,20.33
2018-05-26T02:18:59.278Z,20.31
2018-05-26T02:19:34.781Z,20.30
2018-05-26T02:20:10.540Z,20.39
2018-05-26T02:20:46.062Z,20.39
2018-05-26T02:21:21.697Z,20.39
2018-05-26T02:21:57.147Z,20.41
2018-05-26T02:22:32.344Z,20.34
2018-05-26T02:23:07.782Z,20.38
2018-05-26T02:23:43.060Z,20.39
2018-05-26T02:24:18.505Z,20.38
2018-05-26T02:24:54.225Z,20.28
2018-05-26T02:25:29.637Z,20.31
2018-05-26T02:26:05.077Z,20.30
2018-05-26T02:26:40.327Z,20.42
2018-05-26T02:27:15.758Z,20.30
2018-05-26T02:27:50.974Z,20.31
2018-05-26T02:28:26.199Z,20.28
2018-05-26T02:29:01.530Z,20.33
2018-05-26T02:29:36.940Z,20.39
2018-05-26T02:30:14.346Z,20.38
2018-05-26T02:30:49.698Z,20.28
2018-05-26T02:31:25.425Z,20.31
2018-05-26T02:32:00.878Z,20.28
2018-05-26T02:32:36.316Z,20.33
2018-05-26T02:33:11.540Z,20.39
2018-05-26T02:33:47.294Z,20.31
2018-05-26T02:34:22.621Z,20.28
2018-05-26T02:35:01.386Z,20.27
2018-05-26T02:35:36.995Z,20.27
2018-05-26T02:36:12.310Z,20.33
2018-05-26T02:36:47.929Z,20.27
2018-05-26T02:37:23.369Z,20.24
2018-05-26T02:37:58.578Z,20.24
2018-05-26T02:38:34.703Z,20.15
2018-05-26T02:39:10.491Z,20.24
2018-05-26T02:39:46.007Z,20.25
2018-05-26T02:40:21.471Z,20.18
2018-05-26T02:40:56.758Z,20.21
2018-05-26T02:41:32.084Z,20.20
2018-05-26T02:42:07.599Z,20.18
2018-05-26T02:42:43.956Z,20.23
2018-05-26T02:43:19.360Z,20.18
2018-05-26T02:43:54.686Z,20.23
2018-05-26T02:44:29.981Z,20.24
2018-05-26T02:45:05.335Z,20.12
2018-05-26T02:45:42.050Z,20.20
2018-05-26T02:46:17.960Z,20.06
2018-05-26T02:46:53.378Z,20.15
2018-05-26T02:47:28.888Z,20.18
2018-05-26T02:48:04.519Z,20.09
2018-05-26T02:48:39.939Z,20.09
2018-05-26T02:49:15.953Z,20.09
2018-05-26T02:49:51.263Z,20.06
2018-05-26T02:50:26.825Z,20.13
2018-05-26T02:51:02.043Z,20.09
2018-05-26T02:51:37.474Z,20.12
2018-05-26T02:52:12.696Z,20.06
2018-05-26T02:52:47.992Z,20.12
2018-05-26T02:53:23.514Z,20.09
2018-05-26T02:53:59.113Z,20.12
2018-05-26T02:54:34.682Z,20.13
2018-05-26T02:55:10.127Z,20.09
2018-05-26T02:55:45.472Z,20.05
2018-05-26T02:56:21.071Z,20.05
2018-05-26T02:56:56.406Z,20.08
2018-05-26T02:57:31.623Z,20.09
2018-05-26T02:58:07.231Z,20.09
2018-05-26T02:58:42.555Z,20.06
2018-05-26T02:59:17.764Z,20.06
2018-05-26T02:59:53.207Z,20.05
2018-05-26T03:00:28.925Z,20.09
2018-05-26T03:01:04.232Z,20.12
2018-05-26T03:01:39.635Z,20.06
2018-05-26T03:02:14.956Z,20.10
2018-05-26T03:02:50.350Z,20.13
2018-05-26T03:03:25.600Z,20.12
2018-05-26T03:04:01.241Z,20.06
2018-05-26T03:04:36.553Z,20.05
2018-05-26T03:05:11.814Z,20.05
2018-05-26T03:05:47.572Z,20.06
2018-05-26T03:06:23.339Z,20.08
2018-05-26T03:06:58.666Z,20.09
2018-05-26T03:07:33.917Z,20.05
2018-05-26T03:08:09.250Z,20.08
2018-05-26T03:08:44.672Z,20.02
2018-05-26T03:09:21.880Z,20.10
2018-05-26T03:09:57.222Z,20.12
2018-05-26T03:10:32.583Z,20.06
2018-05-26T03:11:08.001Z,20.03
2018-05-26T03:11:43.553Z,20.09
2018-05-26T03:12:19.144Z,20.10
2018-05-26T03:12:54.579Z,20.12
2018-05-26T03:13:29.576Z,20.13
2018-05-26T03:14:05.555Z,20.05
2018-05-26T03:14:40.777Z,20.05
2018-05-26T03:15:16.295Z,20.06
2018-05-26T03:15:53.790Z,20.08
2018-05-26T03:16:29.127Z,20.08
2018-05-26T03:17:04.307Z,20.08
2018-05-26T03:17:39.791Z,20.05
2018-05-26T03:18:15.047Z,20.09
2018-05-26T03:18:50.542Z,20.08
2018-05-26T03:19:27.110Z,20.03
2018-05-26T03:20:02.723Z,20.05
2018-05-26T03:20:38.482Z,20.08
2018-05-26T03:21:13.590Z,20.12
2018-05-26T03:21:48.909Z,20.06
2018-05-26T03:22:24.045Z,20.09
2018-05-26T03:22:59.249Z,20.08
2018-05-26T03:23:34.470Z,20.08
2018-05-26T03:24:09.879Z,20.05
2018-05-26T03:24:45.327Z,20.21
2018-05-26T03:25:20.812Z,20.20
2018-05-26T03:25:56.248Z,20.16
2018-05-26T03:26:31.657Z,20.21
2018-05-26T03:27:06.895Z,20.09
2018-05-26T03:27:42.190Z,20.06
2018-05-26T03:28:18.119Z,20.08
2018-05-26T03:28:53.528Z,20.08
2018-05-26T03:29:28.844Z,20.13
2018-05-26T03:30:04.170Z,20.12
2018-05-26T03:30:39.404Z,20.08
2018-05-26T03:31:14.729Z,20.05
2018-05-26T03:31:50.050Z,20.09
2018-05-26T03:32:25.486Z,20.15
2018-05-26T03:33:00.914Z,20.03
2018-05-26T03:33:36.153Z,20.08
2018-05-26T03:34:11.777Z,20.06
2018-05-26T03:34:47.114Z,20.03
2018-05-26T03:35:22.544Z,19.95
2018-05-26T03:35:57.864Z,20.06
2018-05-26T03:36:33.004Z,20.05
2018-05-26T03:37:08.330Z,20.09
2018-05-26T03:37:43.647Z,19.97
2018-05-26T03:38:18.944Z,19.94
2018-05-26T03:38:54.597Z,20.05
2018-05-26T03:39:30.876Z,20.08
2018-05-26T03:40:06.208Z,20.02
2018-05-26T03:40:43.369Z,20.03
2018-05-26T03:41:18.762Z,20.08
2018-05-26T03:41:53.996Z,20.08
2018-05-26T03:42:29.595Z,20.09
2018-05-26T03:43:05.046Z,20.09
2018-05-26T03:43:40.562Z,20.06
2018-05-26T03:44:16.015Z,20.06
2018-05-26T03:44:51.515Z,20.08
2018-05-26T03:45:27.143Z,20.05
2018-05-26T03:46:02.542Z,20.00
2018-05-26T03:46:37.844Z,20.09
2018-05-26T03:47:13.176Z,20.06
2018-05-26T03:47:48.688Z,20.08
2018-05-26T03:48:24.138Z,19.94
2018-05-26T03:48:59.230Z,20.08
2018-05-26T03:49:34.662Z,20.08
2018-05-26T03:50:10.092Z,20.15
2018-05-26T03:50:45.655Z,20.16
2018-05-26T03:51:20.874Z,20.09
2018-05-26T03:51:55.992Z,20.03
2018-05-26T03:52:31.736Z,20.05
2018-05-26T03:53:06.842Z,20.09
2018-05-26T03:53:42.352Z,20.13
2018-05-26T03:54:17.564Z,20.09
2018-05-26T03:54:52.778Z,20.15
2018-05-26T03:55:28.079Z,20.09
2018-05-26T03:56:03.539Z,20.05
2018-05-26T03:56:38.771Z,20.08
2018-05-26T03:57:14.818Z,20.09
2018-05-26T03:57:50.110Z,20.05
2018-05-26T03:58:25.657Z,20.09
2018-05-26T03:59:00.991Z,20.08
2018-05-26T03:59:36.241Z,20.06
2018-05-26T04:00:11.569Z,20.13
2018-05-26T04:00:47.567Z,20.05
2018-05-26T04:01:23.250Z,20.10
2018-05-26T04:01:58.446Z,20.09
2018-05-26T04:02:33.867Z,20.05
2018-05-26T04:03:08.974Z,20.06
2018-05-26T04:03:44.491Z,20.03
2018-05-26T04:04:19.907Z,20.10
2018-05-26T04:04:55.340Z,20.12
2018-05-26T04:05:30.994Z,20.10
2018-05-26T04:06:06.424Z,20.03
2018-05-26T04:06:41.932Z,20.00
2018-05-26T04:07:17.094Z,20.08
2018-05-26T04:07:52.405Z,20.08
2018-05-26T04:08:27.586Z,20.03
2018-05-26T04:09:03.116Z,20.15
2018-05-26T04:09:39.018Z,20.09
2018-05-26T04:10:14.746Z,20.09
2018-05-26T04:10:50.082Z,20.10
2018-05-26T04:11:25.691Z,20.13
2018-05-26T04:12:00.871Z,20.08
2018-05-26T04:12:36.368Z,20.09
2018-05-26T04:13:11.702Z,20.10
2018-05-26T04:13:46.902Z,20.15
2018-05-26T04:14:22.405Z,20.10
2018-05-26T04:14:58.667Z,20.10
2018-05-26T04:15:34.294Z,20.12
2018-05-26T04:16:09.549Z,20.13
2018-05-26T04:16:45.001Z,20.15
2018-05-26T04:17:20.231Z,20.09
2018-05-26T04:17:55.941Z,20.16
2018-05-26T04:18:31.163Z,20.16
2018-05-26T04:19:06.498Z,20.15
2018-05-26T04:19:41.873Z,20.05
2018-05-26T04:20:17.468Z,20.10
2018-05-26T04:20:52.711Z,20.24
2018-05-26T04:21:28.128Z,20.20
2018-05-26T04:22:03.463Z,20.21
2018-05-26T04:22:39.155Z,20.15
2018-05-26T04:23:14.679Z,20.21
2018-05-26T04:23:50.342Z,20.13
2018-05-26T04:24:25.773Z,20.12
2018-05-26T04:25:01.210Z,20.21
2018-05-26T04:25:36.393Z,20.18
2018-05-26T04:26:11.893Z,20.13
2018-05-26T04:26:47.115Z,20.12
2018-05-26T04:27:22.336Z,20.21
2018-05-26T04:27:57.477Z,20.15
2018-05-26T04:28:32.797Z,20.12
2018-05-26T04:29:08.515Z,20.15
2018-05-26T04:29:44.248Z,20.21
2018-05-26T04:30:19.566Z,20.23
2018-05-26T04:30:54.842Z,20.18
2018-05-26T04:31:30.459Z,20.20
2018-05-26T04:32:05.629Z,20.18
2018-05-26T04:32:40.833Z,20.27
2018-05-26T04:33:16.140Z,20.18
2018-05-26T04:33:51.764Z,20.27
2018-05-26T04:34:27.182Z,20.12
2018-05-26T04:35:02.417Z,20.21
2018-05-26T04:35:37.648Z,20.21
2018-05-26T04:36:12.870Z,20.27
2018-05-26T04:36:48.855Z,20.25
2018-05-26T04:37:24.027Z,20.27
2018-05-26T04:37:59.156Z,20.27
2018-05-26T04:38:34.354Z,20.28
2018-05-26T04:39:11.414Z,20.34
2018-05-26T04:39:49.212Z,20.30
2018-05-26T04:40:24.472Z,20.42
2018-05-26T04:41:00.594Z,20.35
2018-05-26T04:41:37.174Z,20.30
2018-05-26T04:42:12.413Z,20.41
2018-05-26T04:42:47.619Z,20.43
2018-05-26T04:43:23.076Z,20.43
2018-05-26T04:43:58.397Z,20.34
2018-05-26T04:44:33.764Z,20.42
2018-05-26T04:45:08.700Z,20.42
2018-05-26T04:45:47.886Z,20.39
2018-05-26T04:46:23.118Z,20.51
2018-05-26T04:46:58.443Z,20.50
2018-05-26T04:47:33.659Z,20.42
2018-05-26T04:48:09.189Z,20.50
2018-05-26T04:48:44.388Z,20.58
2018-05-26T04:49:19.980Z,20.47
2018-05-26T04:49:55.474Z,20.35
2018-05-26T04:50:30.789Z,20.41
2018-05-26T04:51:05.931Z,20.49
2018-05-26T04:51:41.343Z,20.38
2018-05-26T04:52:16.874Z,20.35
2018-05-26T04:52:52.194Z,20.43
2018-05-26T04:53:27.737Z,20.49
2018-05-26T04:54:03.159Z,20.49
2018-05-26T04:54:38.476Z,20.46
2018-05-26T04:55:13.814Z,20.50
2018-05-26T04:55:49.139Z,20.49
2018-05-26T04:56:24.683Z,20.42
2018-05-26T04:57:00.297Z,20.54
2018-05-26T04:57:35.836Z,20.50
2018-05-26T04:58:11.142Z,20.46
2018-05-26T04:58:46.792Z,20.59
2018-05-26T04:59:22.241Z,20.49
2018-05-26T04:59:57.591Z,20.59
2018-05-26T05:00:32.925Z,20.49
2018-05-26T05:01:08.216Z,20.61
2018-05-26T05:01:43.473Z,20.62
2018-05-26T05:02:18.781Z,20.46
2018-05-26T05:02:54.210Z,20.56
2018-05-26T05:03:29.809Z,20.62
2018-05-26T05:04:05.122Z,20.49
2018-05-26T05:04:40.570Z,20.65
2018-05-26T05:05:16.099Z,20.62
2018-05-26T05:05:51.737Z,20.68
2018-05-26T05:06:27.158Z,20.59
2018-05-26T05:07:02.617Z,20.59
2018-05-26T05:07:38.263Z,20.46
2018-05-26T05:08:13.731Z,20.51
2018-05-26T05:08:48.929Z,20.43
2018-05-26T05:09:24.268Z,20.68
2018-05-26T05:09:59.595Z,20.58
2018-05-26T05:10:35.027Z,20.58
2018-05-26T05:11:10.482Z,20.61
2018-05-26T05:11:45.919Z,20.64
2018-05-26T05:12:21.542Z,20.59
2018-05-26T05:12:56.854Z,20.65
2018-05-26T05:13:32.118Z,20.72
2018-05-26T05:14:07.511Z,20.71
2018-05-26T05:14:42.673Z,20.74
2018-05-26T05:15:18.012Z,20.76
2018-05-26T05:15:53.296Z,20.74
2018-05-26T05:16:28.706Z,20.77
2018-05-26T05:17:04.178Z,20.76
2018-05-26T05:17:39.695Z,20.76
2018-05-26T05:18:14.909Z,20.69
2018-05-26T05:18:50.239Z,20.76
2018-05-26T05:19:25.597Z,20.83
2018-05-26T05:20:01.062Z,20.86
2018-05-26T05:20:36.557Z,20.86
2018-05-26T05:21:12.228Z,20.80
2018-05-26T05:21:47.771Z,20.87
2018-05-26T05:22:23.203Z,20.87
2018-05-26T05:22:58.621Z,20.86
2018-05-26T05:23:34.273Z,20.89
2018-05-26T05:24:09.937Z,20.87
2018-05-26T05:24:45.315Z,20.87
2018-05-26T05:25:20.642Z,20.89
2018-05-26T05:25:56.560Z,20.89
2018-05-26T05:26:32.108Z,20.89
2018-05-26T05:27:07.785Z,20.96
2018-05-26T05:27:43.324Z,21.04
2018-05-26T05:28:18.847Z,21.04
2018-05-26T05:28:54.085Z,21.01
2018-05-26T05:29:29.736Z,21.06
2018-05-26T05:30:05.129Z,21.08
2018-05-26T05:30:42.260Z,21.17
2018-05-26T05:31:17.276Z,21.13
2018-05-26T05:31:52.995Z,21.20
2018-05-26T05:32:28.389Z,21.20
2018-05-26T05:33:03.698Z,21.13
2018-05-26T05:33:38.978Z,21.16
2018-05-26T05:34:14.123Z,21.21
2018-05-26T05:34:49.430Z,21.16
2018-05-26T05:35:24.758Z,21.21
2018-05-26T05:36:00.196Z,21.20
2018-05-26T05:36:35.794Z,21.16
2018-05-26T05:37:10.861Z,21.26
2018-05-26T05:37:46.256Z,21.19
2018-05-26T05:38:21.513Z,21.35
2018-05-26T05:38:56.857Z,21.29
2018-05-26T05:39:32.403Z,21.26
2018-05-26T05:40:07.408Z,21.27
2018-05-26T05:40:44.998Z,21.34
2018-05-26T05:41:20.338Z,21.21
2018-05-26T05:41:55.691Z,21.32
2018-05-26T05:42:31.074Z,21.39
2018-05-26T05:43:06.507Z,21.42
2018-05-26T05:43:44.822Z,21.41
2018-05-26T05:44:20.030Z,21.35
2018-05-26T05:44:55.708Z,21.48
2018-05-26T05:45:30.949Z,21.48
2018-05-26T05:46:06.366Z,21.57
2018-05-26T05:46:41.874Z,21.59
2018-05-26T05:47:17.450Z,21.63
2018-05-26T05:47:52.761Z,21.64
2018-05-26T05:48:28.277Z,21.63
2018-05-26T05:49:03.603Z,21.71
2018-05-26T05:49:38.938Z,21.72
2018-05-26T05:50:14.453Z,21.74
2018-05-26T05:50:50.486Z,21.79
2018-05-26T05:51:25.914Z,21.88
2018-05-26T05:52:01.207Z,21.92
2018-05-26T05:52:36.761Z,21.92
2018-05-26T05:53:12.195Z,21.97
2018-05-26T05:53:47.665Z,21.95
2018-05-26T05:54:23.373Z,21.94
2018-05-26T05:54:58.690Z,21.99
2018-05-26T05:55:34.175Z,21.98
2018-05-26T05:56:09.437Z,21.94
2018-05-26T05:56:44.820Z,21.92
2018-05-26T05:57:20.083Z,22.01
2018-05-26T05:57:55.563Z,21.99
2018-05-26T05:58:31.043Z,22.01
2018-05-26T05:59:06.572Z,22.12
2018-05-26T05:59:42.181Z,22.16
2018-05-26T06:00:17.801Z,22.19
2018-05-26T06:00:55.413Z,22.22
2018-05-26T06:01:30.569Z,22.31
2018-05-26T06:02:05.874Z,22.29
2018-05-26T06:02:41.935Z,22.32
2018-05-26T06:03:17.062Z,22.29
2018-05-26T06:03:53.167Z,22.31
2018-05-26T06:04:28.506Z,22.37
2018-05-26T06:05:04.031Z,22.49
2018-05-26T06:05:40.682Z,22.52
2018-05-26T06:06:15.810Z,22.50
2018-05-26T06:06:51.238Z,22.59
2018-05-26T06:07:26.591Z,22.53
2018-05-26T06:08:02.120Z,22.60
2018-05-26T06:08:37.510Z,22.59
2018-05-26T06:09:14.869Z,22.60
2018-05-26T06:09:51.515Z,22.71
2018-05-26T06:10:26.819Z,22.77
2018-05-26T06:11:02.357Z,22.74
2018-05-26T06:11:37.573Z,22.72
2018-05-26T06:12:13.930Z,22.75
2018-05-26T06:12:51.722Z,22.75
2018-05-26T06:13:27.229Z,22.89
2018-05-26T06:14:02.449Z,22.96
2018-05-26T06:14:37.798Z,22.86
2018-05-26T06:15:13.366Z,22.92
2018-05-26T06:15:49.551Z,22.99
2018-05-26T06:16:24.879Z,23.05
2018-05-26T06:17:00.104Z,23.07
2018-05-26T06:17:35.595Z,23.14
2018-05-26T06:18:11.019Z,23.19
2018-05-26T06:18:46.356Z,23.12
2018-05-26T06:19:21.856Z,23.19
2018-05-26T06:19:57.207Z,23.32
2018-05-26T06:20:33.196Z,23.39
2018-05-26T06:21:08.493Z,23.38
2018-05-26T06:21:43.882Z,23.42
2018-05-26T06:22:19.188Z,23.43
2018-05-26T06:22:54.943Z,23.47
2018-05-26T06:23:29.980Z,23.53
2018-05-26T06:24:05.220Z,23.57
2018-05-26T06:24:40.445Z,23.61
2018-05-26T06:25:16.057Z,23.62
2018-05-26T06:25:54.305Z,23.67
2018-05-26T06:26:29.927Z,23.70
2018-05-26T06:27:07.729Z,23.77
2018-05-26T06:27:42.962Z,23.76
2018-05-26T06:28:18.382Z,23.75
2018-05-26T06:28:53.729Z,23.75
2018-05-26T06:29:29.088Z,23.75
2018-05-26T06:30:04.475Z,23.77
2018-05-26T06:30:40.758Z,23.89
2018-05-26T06:31:16.147Z,23.82
2018-05-26T06:31:51.590Z,23.82
2018-05-26T06:32:26.990Z,23.77
2018-05-26T06:33:02.281Z,23.79
2018-05-26T06:33:37.987Z,23.76
2018-05-26T06:34:13.405Z,23.95
2018-05-26T06:34:51.840Z,23.97
2018-05-26T06:35:27.234Z,24.05
2018-05-26T06:36:02.753Z,24.10
2018-05-26T06:36:38.048Z,24.10
2018-05-26T06:37:13.575Z,24.16
2018-05-26T06:37:49.756Z,24.10
2018-05-26T06:38:25.053Z,24.17
2018-05-26T06:39:03.591Z,24.26
2018-05-26T06:39:39.214Z,24.27
2018-05-26T06:40:14.539Z,24.37
2018-05-26T06:40:50.012Z,24.39
2018-05-26T06:41:25.289Z,24.39
2018-05-26T06:42:00.793Z,24.47
2018-05-26T06:42:38.722Z,24.47
2018-05-26T06:43:14.125Z,24.61
2018-05-26T06:43:49.550Z,24.63
2018-05-26T06:44:24.991Z,24.60
2018-05-26T06:45:00.522Z,24.75
2018-05-26T06:45:35.950Z,24.71
2018-05-26T06:46:11.248Z,24.76
2018-05-26T06:46:46.810Z,24.53
2018-05-26T06:47:22.138Z,24.77
2018-05-26T06:47:58.619Z,24.80
2018-05-26T06:48:34.236Z,25.05
2018-05-26T06:49:09.589Z,25.05
2018-05-26T06:49:44.853Z,25.02
2018-05-26T06:50:20.368Z,24.98
2018-05-26T06:50:55.612Z,24.98
2018-05-26T06:51:31.029Z,25.10
2018-05-26T06:52:06.355Z,25.06
2018-05-26T06:52:41.866Z,25.00
2018-05-26T06:53:17.030Z,25.05
2018-05-26T06:53:52.241Z,25.02
2018-05-26T06:54:27.583Z,25.22
2018-05-26T06:55:02.786Z,25.22
2018-05-26T06:55:39.049Z,25.28
2018-05-26T06:56:14.474Z,25.25
2018-05-26T06:56:49.871Z,25.44
2018-05-26T06:57:25.308Z,25.54
2018-05-26T06:58:00.589Z,25.46
2018-05-26T06:58:35.918Z,25.43
2018-05-26T06:59:11.636Z,25.44
2018-05-26T06:59:47.947Z,25.50
2018-05-26T07:00:23.528Z,25.49
2018-05-26T07:03:39.005Z,25.86
2018-05-26T07:04:14.636Z,25.97
2018-05-26T07:04:50.113Z,25.99
2018-05-26T07:05:25.613Z,25.84
2018-05-26T07:06:01.235Z,25.94
2018-05-26T07:06:36.634Z,25.93
2018-05-26T07:07:12.199Z,25.91
2018-05-26T07:07:47.479Z,25.99
2018-05-26T07:08:22.702Z,25.97
2018-05-26T07:08:58.259Z,26.20
2018-05-26T07:09:33.850Z,26.29
2018-05-26T07:10:09.140Z,26.40
2018-05-26T07:10:44.659Z,26.54
2018-05-26T07:11:20.220Z,26.43
2018-05-26T07:11:55.614Z,26.55
2018-05-26T07:12:31.213Z,26.59
2018-05-26T07:13:06.734Z,26.68
2018-05-26T07:13:41.880Z,26.73
2018-05-26T07:14:17.111Z,26.62
2018-05-26T07:14:52.429Z,26.73
2018-05-26T07:15:29.115Z,26.54
2018-05-26T07:16:04.475Z,26.55
2018-05-26T07:16:41.979Z,26.57
2018-05-26T07:17:17.205Z,26.62
2018-05-26T07:17:52.622Z,26.62
2018-05-26T07:18:27.957Z,26.74
2018-05-26T07:19:03.983Z,26.69
2018-05-26T07:19:39.575Z,26.98
2018-05-26T07:20:15.131Z,27.21
2018-05-26T07:20:50.442Z,27.28
2018-05-26T07:21:25.979Z,27.21
2018-05-26T07:22:01.427Z,27.20
2018-05-26T07:22:36.848Z,27.13
2018-05-26T07:23:12.178Z,27.19
2018-05-26T07:23:47.629Z,27.24
2018-05-26T07:24:23.064Z,27.23
2018-05-26T07:24:58.480Z,27.29
2018-05-26T07:25:34.202Z,27.31
2018-05-26T07:26:09.706Z,27.24
2018-05-26T07:26:45.138Z,27.47
2018-05-26T07:27:20.440Z,27.57
2018-05-26T07:27:55.860Z,27.64
2018-05-26T07:28:31.485Z,27.73
2018-05-26T07:29:06.901Z,27.96
2018-05-26T07:29:42.732Z,28.41
2018-05-26T07:30:18.467Z,28.28
2018-05-26T07:30:54.293Z,28.29
2018-05-26T07:31:29.715Z,28.43
2018-05-26T07:32:05.050Z,28.46
2018-05-26T07:32:40.356Z,28.54
2018-05-26T07:33:15.776Z,28.56
2018-05-26T07:33:51.274Z,28.44
2018-05-26T07:34:26.554Z,28.26
2018-05-26T07:35:02.159Z,28.32
2018-05-26T07:35:38.790Z,28.29
2018-05-26T07:36:14.433Z,28.51
2018-05-26T07:36:50.043Z,28.44
2018-05-26T07:37:25.357Z,28.69
2018-05-26T07:38:00.881Z,28.68
2018-05-26T07:38:36.335Z,28.75
2018-05-26T07:39:11.916Z,28.70
2018-05-26T07:39:47.350Z,28.84
2018-05-26T07:40:22.863Z,28.81
2018-05-26T07:40:58.182Z,29.07
2018-05-26T07:41:33.440Z,29.18